Time;durP1;ratioP1;P1;durP2;ratioP2;P2;SDS_P1;SDS_P2;PMS_P1;PMS_P2;Temp;Humidity;BMP_temperature;BMP_pressure;BME280_temperature;BME280_humidity;BME280_pressure;Samples;Min_cycle;Max_cycle;Signal;HPM_P1;HPM_P2
2021/03/22 00:01:19;;;;;;;30.08;8.30;;;5.20;99.90;;;;;;5115397;28;20277;-70
2021/03/22 00:03:47;;;;;;;25.10;7.10;;;5.30;99.90;;;;;;5115030;28;20195;-70
2021/03/22 00:06:14;;;;;;;33.53;7.57;;;5.30;99.90;;;;;;5117806;28;20202;-70
2021/03/22 00:08:41;;;;;;;21.85;7.25;;;5.30;99.90;;;;;;5118875;27;20275;-70
2021/03/22 00:11:07;;;;;;;19.60;5.97;;;5.30;99.90;;;;;;5119247;27;20191;-70
2021/03/22 00:13:36;;;;;;;25.10;6.90;;;5.30;99.90;;;;;;5118966;28;20207;-70
2021/03/22 00:16:06;;;;;;;25.77;5.57;;;5.40;99.90;;;;;;5119644;27;20229;-68
2021/03/22 00:18:37;;;;;;;28.30;7.03;;;5.40;99.90;;;;;;5119758;28;20250;-68
2021/03/22 00:21:06;;;;;;;19.23;9.00;;;5.40;99.90;;;;;;5119107;28;20216;-68
2021/03/22 00:23:32;;;;;;;25.33;6.82;;;5.40;99.90;;;;;;5119438;28;20193;-68
2021/03/22 00:25:59;;;;;;;16.17;6.68;;;5.40;99.90;;;;;;5118366;28;20533;-68
2021/03/22 00:28:28;;;;;;;18.65;6.88;;;5.40;99.90;;;;;;5116415;28;20221;-68
2021/03/22 00:30:57;;;;;;;25.17;7.82;;;5.40;99.90;;;;;;5117539;28;20570;-68
2021/03/22 00:33:23;;;;;;;23.17;6.75;;;5.50;99.90;;;;;;5118979;28;20210;-68
2021/03/22 00:35:50;;;;;;;20.95;6.75;;;5.40;99.90;;;;;;5118503;28;20233;-70
2021/03/22 00:38:20;;;;;;;24.35;6.93;;;5.40;99.90;;;;;;5118831;28;20178;-68
2021/03/22 00:40:47;;;;;;;15.82;6.85;;;5.50;99.90;;;;;;5118738;28;20641;-69
2021/03/22 00:43:14;;;;;;;18.63;6.78;;;5.40;99.90;;;;;;5118712;28;20183;-68
2021/03/22 00:45:42;;;;;;;18.05;6.88;;;5.40;99.90;;;;;;5118190;28;20198;-68
2021/03/22 00:48:10;;;;;;;18.02;6.47;;;5.50;99.90;;;;;;5117690;28;20194;-68
2021/03/22 00:50:41;;;;;;;19.45;6.82;;;5.50;99.90;;;;;;5117452;28;20570;-68
2021/03/22 00:53:11;;;;;;;24.83;8.20;;;5.50;99.90;;;;;;5117765;28;20191;-69
2021/03/22 00:55:38;;;;;;;26.35;6.80;;;5.50;99.90;;;;;;5118462;28;20218;-69
2021/03/22 00:58:06;;;;;;;19.98;7.53;;;5.50;99.90;;;;;;5117163;28;20191;-68
2021/03/22 01:00:41;;;;;;;23.67;6.90;;;5.50;99.90;;;;;;5117000;28;20660;-68
2021/03/22 01:03:12;;;;;;;15.93;7.55;;;5.50;99.90;;;;;;5117319;27;20202;-68
2021/03/22 01:05:41;;;;;;;19.02;6.45;;;5.50;99.90;;;;;;5116899;28;20575;-68
2021/03/22 01:08:08;;;;;;;23.20;7.38;;;5.40;99.90;;;;;;5115904;28;20654;-68
2021/03/22 01:10:56;;;;;;;23.85;7.70;;;5.40;99.90;;;;;;5116928;27;20240;-68
2021/03/22 01:13:33;;;;;;;22.65;6.63;;;5.40;99.90;;;;;;5117126;28;20171;-68
2021/03/22 01:16:02;;;;;;;29.80;8.18;;;5.30;99.90;;;;;;5116965;28;20281;-68
2021/03/22 01:18:35;;;;;;;15.25;5.75;;;5.30;99.90;;;;;;5117101;28;20187;-68
2021/03/22 01:21:16;;;;;;;19.48;6.25;;;5.30;99.90;;;;;;5116820;28;20171;-68
2021/03/22 01:23:43;;;;;;;16.73;5.75;;;5.20;99.90;;;;;;5116874;28;20197;-68
2021/03/22 01:26:14;;;;;;;28.10;6.68;;;5.20;99.90;;;;;;5116676;28;20665;-69
2021/03/22 01:28:43;;;;;;;23.33;7.00;;;5.20;99.90;;;;;;5116549;28;20224;-69
2021/03/22 01:31:11;;;;;;;24.27;6.05;;;5.20;99.90;;;;;;5116833;28;20214;-69
2021/03/22 01:33:41;;;;;;;18.70;5.20;;;5.20;99.90;;;;;;5116496;28;20190;-69
2021/03/22 01:36:15;;;;;;;16.25;5.40;;;5.10;99.90;;;;;;5116268;28;20230;-69
2021/03/22 01:38:42;;;;;;;20.08;5.55;;;5.10;99.90;;;;;;5116436;28;20167;-70
2021/03/22 01:41:37;;;;;;;18.35;5.03;;;5.20;99.90;;;;;;5116505;27;20190;-69
2021/03/22 01:44:09;;;;;;;16.13;5.10;;;5.20;99.90;;;;;;5116578;28;20179;-70
2021/03/22 01:46:37;;;;;;;18.80;4.93;;;5.20;99.90;;;;;;5116305;28;20187;-69
2021/03/22 01:49:05;;;;;;;19.48;5.65;;;5.20;99.90;;;;;;5116687;28;20209;-69
2021/03/22 01:51:34;;;;;;;23.90;5.65;;;5.20;99.90;;;;;;5116072;28;20279;-69
2021/03/22 01:54:01;;;;;;;20.65;4.53;;;5.20;99.90;;;;;;5114698;28;20210;-69
2021/03/22 01:56:38;;;;;;;27.75;6.25;;;5.20;99.90;;;;;;5115740;28;20211;-69
2021/03/22 01:59:04;;;;;;;28.00;6.43;;;5.20;99.90;;;;;;5116077;27;20645;-69
2021/03/22 02:01:31;;;;;;;24.67;7.72;;;5.20;99.90;;;;;;5116018;28;20190;-69
2021/03/22 02:03:58;;;;;;;15.18;4.75;;;5.20;99.90;;;;;;5115753;28;20186;-69
2021/03/22 02:06:26;;;;;;;14.93;4.47;;;5.20;99.90;;;;;;5115933;28;20191;-69
2021/03/22 02:08:53;;;;;;;14.15;5.30;;;5.20;99.90;;;;;;5115562;28;20187;-70
2021/03/22 02:11:30;;;;;;;20.98;5.30;;;5.20;99.90;;;;;;5115684;27;20187;-70
2021/03/22 02:14:02;;;;;;;21.40;4.88;;;5.20;99.90;;;;;;5115460;27;20206;-69
2021/03/22 02:16:59;;;;;;;16.42;5.35;;;5.20;99.90;;;;;;5115804;27;20669;-70
2021/03/22 02:19:25;;;;;;;19.67;4.50;;;5.20;99.90;;;;;;5115870;28;20207;-69
2021/03/22 02:22:10;;;;;;;19.65;4.90;;;5.20;99.90;;;;;;5115538;28;20202;-69
2021/03/22 02:24:57;;;;;;;27.50;5.32;;;5.20;99.90;;;;;;5115526;28;20183;-69
2021/03/22 02:28:05;;;;;;;23.63;5.65;;;5.20;99.90;;;;;;5115448;28;20582;-69
2021/03/22 02:30:51;;;;;;;15.73;5.20;;;5.20;99.90;;;;;;5114589;28;20214;-69
2021/03/22 02:33:42;;;;;;;18.33;4.70;;;5.20;99.90;;;;;;5114134;28;20203;-69
2021/03/22 02:36:12;;;;;;;16.95;5.82;;;5.20;99.90;;;;;;5115517;27;20226;-69
2021/03/22 02:38:47;;;;;;;10.85;4.43;;;5.20;99.90;;;;;;5115460;28;20171;-70
2021/03/22 02:41:32;;;;;;;12.32;4.65;;;5.20;99.90;;;;;;5115231;28;20191;-69
2021/03/22 02:44:21;;;;;;;20.27;3.97;;;5.20;99.90;;;;;;5114951;28;20191;-70
2021/03/22 02:47:01;;;;;;;12.48;4.22;;;5.10;99.90;;;;;;5115117;28;20183;-69
2021/03/22 02:49:31;;;;;;;21.40;4.88;;;5.10;99.90;;;;;;5114761;27;20215;-69
2021/03/22 02:52:31;;;;;;;12.52;4.10;;;5.10;99.90;;;;;;5114967;28;20183;-69
2021/03/22 02:55:23;;;;;;;20.92;4.57;;;5.10;99.90;;;;;;5100560;28;20209;-70
2021/03/22 02:57:53;;;;;;;16.27;4.43;;;5.10;99.90;;;;;;5114319;28;20661;-69
2021/03/22 03:00:25;;;;;;;14.85;4.88;;;5.10;99.90;;;;;;5113098;28;20198;-69
2021/03/22 03:02:54;;;;;;;19.27;4.90;;;5.10;99.90;;;;;;5114362;28;20232;-70
2021/03/22 03:05:24;;;;;;;23.15;4.90;;;5.10;99.90;;;;;;5114306;28;20269;-69
2021/03/22 03:07:53;;;;;;;16.95;4.50;;;5.10;99.90;;;;;;5114117;27;20556;-70
2021/03/22 03:10:22;;;;;;;14.82;4.85;;;5.10;99.90;;;;;;5113989;28;20198;-70
2021/03/22 03:12:51;;;;;;;22.60;4.53;;;5.10;99.90;;;;;;5114069;28;20243;-69
2021/03/22 03:15:21;;;;;;;16.50;5.68;;;5.10;99.90;;;;;;5114157;28;20591;-69
2021/03/22 03:17:48;;;;;;;11.77;4.85;;;5.10;99.90;;;;;;5114366;28;20193;-69
2021/03/22 03:20:20;;;;;;;14.50;4.50;;;5.10;99.90;;;;;;5114165;28;20569;-69
2021/03/22 03:22:47;;;;;;;17.40;5.45;;;5.10;99.90;;;;;;5114237;28;20633;-69
2021/03/22 03:25:15;;;;;;;23.10;5.47;;;5.10;99.90;;;;;;5114671;28;20556;-69
2021/03/22 03:27:44;;;;;;;22.02;5.85;;;5.10;99.90;;;;;;5114408;28;20194;-69
2021/03/22 03:30:21;;;;;;;18.67;5.53;;;5.10;99.90;;;;;;5114017;28;20222;-69
2021/03/22 03:32:47;;;;;;;16.70;4.75;;;5.10;99.90;;;;;;5114278;28;20178;-69
2021/03/22 03:35:17;;;;;;;11.65;4.15;;;5.00;99.90;;;;;;5114001;28;20596;-69
2021/03/22 03:37:44;;;;;;;18.35;4.70;;;5.00;99.90;;;;;;5114273;28;20182;-69
2021/03/22 03:40:15;;;;;;;22.92;5.47;;;5.00;99.90;;;;;;5112911;28;20190;-69
2021/03/22 03:42:41;;;;;;;16.45;4.80;;;5.00;99.90;;;;;;5114065;28;20561;-69
2021/03/22 03:45:12;;;;;;;13.02;4.97;;;5.00;99.90;;;;;;5114313;28;20222;-69
2021/03/22 03:47:40;;;;;;;15.35;5.05;;;5.00;99.90;;;;;;5114834;28;20252;-70
2021/03/22 03:50:11;;;;;;;28.42;5.28;;;5.00;99.90;;;;;;5113869;28;20218;-70
2021/03/22 03:52:40;;;;;;;16.23;4.60;;;5.00;99.90;;;;;;5113923;28;20179;-69
2021/03/22 03:55:09;;;;;;;10.07;4.10;;;4.90;99.90;;;;;;5113919;28;20186;-69
2021/03/22 03:57:36;;;;;;;26.40;5.10;;;5.00;99.90;;;;;;5113738;28;20237;-70
2021/03/22 04:00:08;;;;;;;13.02;4.57;;;4.90;99.90;;;;;;5113986;28;20190;-69
2021/03/22 04:02:41;;;;;;;18.38;4.45;;;4.90;99.90;;;;;;5113238;28;20190;-69
2021/03/22 04:05:09;;;;;;;12.85;4.15;;;4.90;99.90;;;;;;5113507;28;20203;-69
2021/03/22 04:07:39;;;;;;;13.50;3.92;;;4.90;99.90;;;;;;5113148;28;20210;-70
2021/03/22 04:10:06;;;;;;;20.23;4.60;;;4.90;99.90;;;;;;5113483;28;20190;-69
2021/03/22 04:12:34;;;;;;;19.38;4.57;;;4.90;99.90;;;;;;5099374;28;20557;-71
2021/03/22 04:15:01;;;;;;;22.48;4.57;;;5.00;99.90;;;;;;5113379;28;20191;-69
2021/03/22 04:17:28;;;;;;;15.30;4.20;;;5.00;99.90;;;;;;5113534;28;20214;-69
2021/03/22 04:19:54;;;;;;;18.45;3.58;;;5.00;99.90;;;;;;5113630;28;20675;-69
2021/03/22 04:22:21;;;;;;;15.75;4.07;;;4.90;99.90;;;;;;5112622;28;20256;-69
2021/03/22 04:24:47;;;;;;;21.25;6.18;;;5.00;99.90;;;;;;5113657;28;20661;-69
2021/03/22 04:27:13;;;;;;;13.75;3.80;;;4.90;99.90;;;;;;5113649;28;20201;-69
2021/03/22 04:29:41;;;;;;;13.88;4.07;;;4.90;99.90;;;;;;5114304;28;20599;-69
2021/03/22 04:32:10;;;;;;;18.05;5.72;;;5.00;99.90;;;;;;5113535;28;20203;-70
2021/03/22 04:34:36;;;;;;;22.70;3.10;;;5.00;99.90;;;;;;5114099;28;20198;-69
2021/03/22 04:37:04;;;;;;;11.38;3.28;;;4.90;99.90;;;;;;5113578;28;20238;-70
2021/03/22 04:39:32;;;;;;;15.10;3.67;;;4.90;99.90;;;;;;5113392;28;20253;-69
2021/03/22 04:41:59;;;;;;;11.07;3.40;;;5.00;99.90;;;;;;5113529;28;20219;-69
2021/03/22 04:44:25;;;;;;;12.43;3.90;;;4.90;99.90;;;;;;5113451;28;20194;-69
2021/03/22 04:46:52;;;;;;;18.90;4.65;;;4.90;99.90;;;;;;5112073;28;20214;-70
2021/03/22 04:49:19;;;;;;;12.63;3.70;;;4.90;99.90;;;;;;5113270;28;20259;-69
2021/03/22 04:51:48;;;;;;;15.43;3.10;;;5.00;99.90;;;;;;5113854;28;20223;-69
2021/03/22 04:54:15;;;;;;;16.65;3.83;;;5.00;99.90;;;;;;5117067;28;20550;-69
2021/03/22 04:56:41;;;;;;;12.43;3.60;;;5.00;99.90;;;;;;5116851;28;20214;-69
2021/03/22 04:59:09;;;;;;;13.32;3.70;;;5.00;99.90;;;;;;5117028;28;20187;-69
2021/03/22 05:01:37;;;;;;;11.05;4.15;;;4.90;99.90;;;;;;5116943;28;20195;-69
2021/03/22 05:04:04;;;;;;;10.55;4.10;;;4.90;99.90;;;;;;5116879;28;20350;-70
2021/03/22 05:06:31;;;;;;;6.80;2.83;;;4.90;99.90;;;;;;5117348;28;20206;-70
2021/03/22 05:08:58;;;;;;;12.68;3.63;;;4.90;99.90;;;;;;5116867;28;20187;-70
2021/03/22 05:11:24;;;;;;;10.50;3.30;;;4.90;99.90;;;;;;5115696;28;20214;-70
2021/03/22 05:13:54;;;;;;;17.75;3.80;;;4.90;99.90;;;;;;5116952;27;20191;-69
2021/03/22 05:16:20;;;;;;;18.92;3.17;;;4.90;99.90;;;;;;5116314;28;20230;-69
2021/03/22 05:18:49;;;;;;;13.23;3.03;;;4.90;99.90;;;;;;5116706;28;20656;-69
2021/03/22 05:21:15;;;;;;;17.85;3.88;;;4.90;99.90;;;;;;5116670;28;20190;-70
2021/03/22 05:23:42;;;;;;;16.30;5.05;;;5.00;99.90;;;;;;5116606;28;20661;-70
2021/03/22 05:26:11;;;;;;;14.30;3.25;;;4.90;99.90;;;;;;5116735;28;20210;-69
2021/03/22 05:28:40;;;;;;;13.23;4.78;;;4.90;99.90;;;;;;5116697;27;20194;-69
2021/03/22 05:31:08;;;;;;;13.50;3.58;;;4.90;99.90;;;;;;5116568;28;20225;-69
2021/03/22 05:33:34;;;;;;;11.88;3.25;;;4.90;99.90;;;;;;5116308;28;20699;-69
2021/03/22 05:36:01;;;;;;;9.60;4.22;;;4.90;99.90;;;;;;5114993;28;20194;-70
2021/03/22 05:38:28;;;;;;;14.88;5.03;;;4.90;99.90;;;;;;5115888;27;20195;-69
2021/03/22 05:40:59;;;;;;;12.85;4.30;;;4.90;99.90;;;;;;5111119;28;20670;-69
2021/03/22 05:43:41;;;;;;;17.02;6.40;;;5.00;99.90;;;;;;5106561;28;20638;-69
2021/03/22 05:46:37;;;;;;;10.82;4.03;;;4.90;99.90;;;;;;5115781;27;20723;-69
2021/03/22 05:49:26;;;;;;;13.18;4.63;;;5.00;99.90;;;;;;5115622;28;20207;-70
2021/03/22 05:52:03;;;;;;;15.23;4.63;;;4.90;99.90;;;;;;5115464;28;20270;-69
2021/03/22 05:54:49;;;;;;;9.82;2.83;;;4.90;99.90;;;;;;5101281;28;20645;-71
2021/03/22 05:57:54;;;;;;;15.05;3.28;;;4.90;99.90;;;;;;5115365;28;20255;-69
2021/03/22 06:00:32;;;;;;;13.23;4.40;;;4.90;99.90;;;;;;5106626;27;20252;-69
2021/03/22 06:03:11;;;;;;;18.67;3.85;;;4.90;99.90;;;;;;5115455;28;20661;-69
2021/03/22 06:05:52;;;;;;;14.55;3.88;;;4.90;99.90;;;;;;5115439;28;20174;-69
2021/03/22 06:08:27;;;;;;;13.38;3.63;;;5.00;99.90;;;;;;5114692;27;20206;-69
2021/03/22 06:10:57;;;;;;;12.50;2.88;;;5.00;99.90;;;;;;5115885;28;20175;-69
2021/03/22 06:13:36;;;;;;;14.77;3.35;;;5.10;99.90;;;;;;5115445;28;20630;-69
2021/03/22 06:16:18;;;;;;;12.45;3.65;;;5.10;99.90;;;;;;5115588;28;20195;-70
2021/03/22 06:18:57;;;;;;;18.65;3.63;;;5.10;99.90;;;;;;5115959;28;20556;-69
2021/03/22 06:21:30;;;;;;;11.07;3.67;;;5.10;99.90;;;;;;5116360;28;20190;-69
2021/03/22 06:23:57;;;;;;;11.82;3.35;;;5.20;99.90;;;;;;5115337;28;20183;-69
2021/03/22 06:26:35;;;;;;;16.80;4.18;;;5.20;99.90;;;;;;5115342;28;20198;-69
2021/03/22 06:29:23;;;;;;;15.77;4.55;;;5.20;99.90;;;;;;5115667;28;20207;-70
2021/03/22 06:31:52;;;;;;;24.52;5.10;;;5.30;99.90;;;;;;5115194;28;20259;-70
2021/03/22 06:34:30;;;;;;;8.85;2.75;;;5.30;99.90;;;;;;5115125;28;20239;-69
2021/03/22 06:36:56;;;;;;;10.38;4.15;;;5.30;99.90;;;;;;5114025;28;20723;-69
2021/03/22 06:39:22;;;;;;;9.15;3.63;;;5.30;99.90;;;;;;5114986;28;20211;-69
2021/03/22 06:41:53;;;;;;;21.08;6.20;;;5.40;99.90;;;;;;5115081;28;20192;-69
2021/03/22 06:44:31;;;;;;;25.25;13.80;;;5.40;99.90;;;;;;5113553;28;20187;-69
2021/03/22 06:47:18;;;;;;;11.60;4.80;;;5.40;99.90;;;;;;5114665;28;20236;-69
2021/03/22 06:50:21;;;;;;;12.57;3.95;;;5.40;99.90;;;;;;5114518;28;20258;-69
2021/03/22 06:52:49;;;;;;;16.02;4.85;;;5.40;99.90;;;;;;5114638;28;20194;-69
2021/03/22 06:55:27;;;;;;;15.05;5.00;;;5.60;99.90;;;;;;5114592;28;20661;-70
2021/03/22 06:57:56;;;;;;;13.43;4.53;;;5.60;99.90;;;;;;5114890;28;20225;-69
2021/03/22 07:00:29;;;;;;;11.07;3.80;;;5.70;99.90;;;;;;5115026;28;20207;-70
2021/03/22 07:03:19;;;;;;;9.52;3.00;;;5.60;99.90;;;;;;5115112;28;20266;-70
2021/03/22 07:05:46;;;;;;;7.05;3.10;;;5.60;99.90;;;;;;5114722;27;20206;-70
2021/03/22 07:08:19;;;;;;;16.05;3.85;;;5.70;99.90;;;;;;5114921;28;20187;-72
2021/03/22 07:10:51;;;;;;;10.52;3.45;;;5.70;99.90;;;;;;5114690;28;20207;-69
2021/03/22 07:13:33;;;;;;;11.80;3.92;;;5.70;99.90;;;;;;5114898;28;20207;-69
2021/03/22 07:16:05;;;;;;;17.73;5.05;;;5.80;99.90;;;;;;5115004;28;20213;-69
2021/03/22 07:18:33;;;;;;;12.82;4.43;;;5.90;99.90;;;;;;5114771;28;20548;-69
2021/03/22 07:21:14;;;;;;;9.80;3.80;;;5.90;99.90;;;;;;5115074;28;20207;-69
2021/03/22 07:23:46;;;;;;;16.58;4.32;;;5.90;99.90;;;;;;5114463;28;20185;-69
2021/03/22 07:26:15;;;;;;;12.30;4.28;;;6.00;99.90;;;;;;5113958;28;20300;-69
2021/03/22 07:29:08;;;;;;;16.45;5.85;;;6.00;99.90;;;;;;5114461;28;20629;-69
2021/03/22 07:31:52;;;;;;;10.52;3.58;;;6.10;99.90;;;;;;5113866;28;20641;-69
2021/03/22 07:34:21;;;;;;;11.80;4.25;;;6.10;99.90;;;;;;5113936;28;20186;-70
2021/03/22 07:36:56;;;;;;;10.55;4.55;;;6.20;99.90;;;;;;5113519;28;20219;-70
2021/03/22 07:39:33;;;;;;;9.02;2.90;;;6.30;99.90;;;;;;5114256;28;20205;-70
2021/03/22 07:42:08;;;;;;;10.32;3.15;;;6.30;99.90;;;;;;5113933;28;20558;-70
2021/03/22 07:45:01;;;;;;;9.88;4.30;;;6.20;99.90;;;;;;5113890;28;20591;-70
2021/03/22 07:47:53;;;;;;;10.65;3.47;;;6.30;99.90;;;;;;5100921;28;20191;-69
2021/03/22 07:50:42;;;;;;;12.57;5.13;;;6.40;99.90;;;;;;5113230;28;20741;-69
2021/03/22 07:53:19;;;;;;;21.98;3.90;;;6.50;99.90;;;;;;5103639;28;20560;-69
2021/03/22 07:55:52;;;;;;;19.58;5.00;;;6.60;99.90;;;;;;5111033;28;20190;-69
2021/03/22 07:59:02;;;;;;;12.20;4.30;;;6.60;99.90;;;;;;5113481;28;20223;-69
2021/03/22 08:01:47;;;;;;;10.55;3.72;;;6.70;99.90;;;;;;5071265;28;20269;-69
2021/03/22 08:04:34;;;;;;;12.15;3.10;;;6.80;99.90;;;;;;5109870;28;20205;-68
2021/03/22 08:07:41;;;;;;;18.20;4.97;;;6.80;99.90;;;;;;5113762;28;20211;-69
2021/03/22 08:10:32;;;;;;;12.05;3.53;;;6.80;99.90;;;;;;5091530;28;20580;-70
2021/03/22 08:13:23;;;;;;;10.50;3.42;;;6.70;99.90;;;;;;5113290;28;20203;-70
2021/03/22 08:16:07;;;;;;;10.85;3.78;;;6.60;99.90;;;;;;5094111;28;20183;-70
2021/03/22 08:18:39;;;;;;;5.68;3.47;;;6.70;99.90;;;;;;5094064;28;20266;-69
2021/03/22 08:21:10;;;;;;;10.63;3.22;;;6.80;99.90;;;;;;5093800;28;20174;-69
2021/03/22 08:23:53;;;;;;;10.18;3.47;;;6.80;99.90;;;;;;5092672;28;20573;-69
2021/03/22 08:26:28;;;;;;;10.60;3.47;;;6.80;99.90;;;;;;5093569;28;20702;-69
2021/03/22 08:29:30;;;;;;;6.93;3.45;;;6.90;99.90;;;;;;5097695;28;20202;-70
2021/03/22 08:32:06;;;;;;;17.92;10.52;;;6.80;99.90;;;;;;5093289;28;20234;-71
2021/03/22 08:34:56;;;;;;;11.25;4.25;;;6.90;99.90;;;;;;5114959;28;20555;-71
2021/03/22 08:37:42;;;;;;;9.90;3.40;;;6.90;99.90;;;;;;5117236;28;20246;-68
2021/03/22 08:40:15;;;;;;;22.02;6.38;;;6.80;99.90;;;;;;5105720;28;20211;-69
2021/03/22 08:43:10;;;;;;;10.90;3.95;;;6.80;99.90;;;;;;5104835;28;20206;-69
2021/03/22 08:45:56;;;;;;;16.75;5.75;;;6.70;99.90;;;;;;5099510;28;20561;-69
2021/03/22 08:48:31;;;;;;;9.32;4.13;;;6.80;99.90;;;;;;5117336;28;20213;-68
2021/03/22 08:51:00;;;;;;;11.20;3.90;;;6.90;99.90;;;;;;5117536;28;20700;-70
2021/03/22 08:53:39;;;;;;;13.18;4.65;;;6.90;99.90;;;;;;5117556;28;20179;-70
2021/03/22 08:56:40;;;;;;;8.55;3.13;;;6.90;99.90;;;;;;5117499;28;20563;-69
2021/03/22 08:59:17;;;;;;;15.32;3.88;;;7.00;99.90;;;;;;5117388;28;20239;-69
2021/03/22 09:01:43;;;;;;;10.70;4.50;;;6.90;99.90;;;;;;5117685;28;20185;-70
2021/03/22 09:04:23;;;;;;;8.43;3.03;;;6.80;99.90;;;;;;5117322;28;20190;-68
2021/03/22 09:07:17;;;;;;;11.10;3.60;;;7.00;99.90;;;;;;5117518;28;20213;-69
2021/03/22 09:09:45;;;;;;;6.07;3.70;;;7.20;99.90;;;;;;5116797;28;20217;-69
2021/03/22 09:12:46;;;;;;;14.50;4.05;;;7.40;99.90;;;;;;5115636;28;20280;-69
2021/03/22 09:15:31;;;;;;;9.13;3.58;;;7.40;99.90;;;;;;5117087;28;20629;-70
2021/03/22 09:18:00;;;;;;;10.88;3.25;;;7.40;99.90;;;;;;5116915;28;20560;-70
2021/03/22 09:20:52;;;;;;;6.90;2.88;;;7.30;99.90;;;;;;5116881;28;20215;-70
2021/03/22 09:23:31;;;;;;;8.13;3.72;;;7.40;99.90;;;;;;5117597;28;20286;-69
2021/03/22 09:26:04;;;;;;;8.45;3.50;;;7.70;99.90;;;;;;5116814;28;20195;-69
2021/03/22 09:28:36;;;;;;;6.35;4.28;;;7.60;99.90;;;;;;5116075;28;20289;-69
2021/03/22 09:31:14;;;;;;;20.52;5.05;;;7.60;99.90;;;;;;5118022;27;20207;-69
2021/03/22 09:34:19;;;;;;;8.00;2.90;;;7.50;99.90;;;;;;5117810;28;20206;-70
2021/03/22 09:36:49;;;;;;;7.97;4.97;;;7.60;99.90;;;;;;5094135;28;20202;-69
2021/03/22 09:39:20;;;;;;;8.20;4.15;;;7.60;99.90;;;;;;5095715;28;20199;-70
2021/03/22 09:41:55;;;;;;;8.07;3.13;;;7.70;99.90;;;;;;5114107;27;20202;-73
2021/03/22 09:44:32;;;;;;;8.90;2.85;;;7.70;99.90;;;;;;5117371;28;20189;-70
2021/03/22 09:47:09;;;;;;;3.92;3.05;;;7.80;99.90;;;;;;5116927;27;20212;-69
2021/03/22 09:49:57;;;;;;;5.72;2.88;;;7.60;99.90;;;;;;5106904;28;20384;-69
2021/03/22 09:52:59;;;;;;;7.43;2.85;;;7.60;99.90;;;;;;5116324;28;20616;-70
2021/03/22 09:55:29;;;;;;;7.60;3.65;;;7.70;99.90;;;;;;5100166;28;20217;-69
2021/03/22 09:57:57;;;;;;;7.35;3.20;;;7.80;99.90;;;;;;5118079;28;20221;-69
2021/03/22 10:00:35;;;;;;;7.88;3.45;;;7.90;99.90;;;;;;5118402;28;20630;-69
2021/03/22 10:03:49;;;;;;;15.88;5.68;;;7.90;99.90;;;;;;5117836;27;20274;-70
2021/03/22 10:06:49;;;;;;;8.45;4.53;;;8.10;99.90;;;;;;5107439;28;20224;-69
2021/03/22 10:09:22;;;;;;;5.80;3.78;;;8.00;99.90;;;;;;5116715;28;20167;-69
2021/03/22 10:11:54;;;;;;;9.23;3.83;;;7.90;99.90;;;;;;5116061;28;20247;-69
2021/03/22 10:14:36;;;;;;;8.65;3.80;;;7.80;99.90;;;;;;5116238;28;20179;-68
2021/03/22 10:17:04;;;;;;;10.05;3.67;;;7.90;99.90;;;;;;5117031;28;20235;-69
2021/03/22 10:19:36;;;;;;;10.23;3.75;;;8.00;99.90;;;;;;5098605;28;20195;-69
2021/03/22 10:22:17;;;;;;;5.55;3.05;;;8.10;99.90;;;;;;5116008;28;20202;-69
2021/03/22 10:25:16;;;;;;;8.40;3.53;;;8.10;99.90;;;;;;5115682;28;20194;-70
2021/03/22 10:27:42;;;;;;;4.43;2.55;;;8.30;99.90;;;;;;5100934;28;20263;-70
2021/03/22 10:30:18;;;;;;;3.80;3.05;;;8.10;99.90;;;;;;5115922;28;20211;-69
2021/03/22 10:32:58;;;;;;;8.80;3.15;;;7.90;99.90;;;;;;5115747;28;20216;-69
2021/03/22 10:35:38;;;;;;;7.53;3.38;;;8.10;99.90;;;;;;5115876;28;20211;-70
2021/03/22 10:38:05;;;;;;;8.93;3.47;;;8.00;99.90;;;;;;5115480;28;20203;-70
2021/03/22 10:40:37;;;;;;;7.28;2.88;;;7.80;99.90;;;;;;5115596;28;20191;-69
2021/03/22 10:43:05;;;;;;;8.68;3.80;;;7.70;99.90;;;;;;5115422;28;20534;-69
2021/03/22 10:45:42;;;;;;;11.20;4.45;;;7.70;99.90;;;;;;5115913;28;20170;-70
2021/03/22 10:48:38;;;;;;;9.30;3.75;;;7.70;99.90;;;;;;5115420;28;20202;-70
2021/03/22 10:51:18;;;;;;;6.57;3.50;;;7.80;99.90;;;;;;5107259;28;20681;-70
2021/03/22 10:53:58;;;;;;;8.55;4.35;;;7.70;99.90;;;;;;5115370;28;20618;-70
2021/03/22 10:56:33;;;;;;;9.10;3.20;;;7.70;99.90;;;;;;5115342;28;20282;-69
2021/03/22 10:59:05;;;;;;;14.57;3.65;;;7.70;99.90;;;;;;5114822;28;20256;-70
2021/03/22 11:01:37;;;;;;;5.65;3.30;;;7.70;99.90;;;;;;5114788;28;20186;-69
2021/03/22 11:04:08;;;;;;;6.70;3.10;;;7.70;99.90;;;;;;5115074;28;20202;-69
2021/03/22 11:06:38;;;;;;;7.85;4.40;;;7.80;99.90;;;;;;5115798;28;20206;-69
2021/03/22 11:09:14;;;;;;;7.63;3.53;;;7.80;99.90;;;;;;5115174;27;20224;-70
2021/03/22 11:11:42;;;;;;;5.40;3.80;;;7.90;99.90;;;;;;5115019;27;20576;-70
2021/03/22 11:14:15;;;;;;;7.30;3.75;;;8.00;99.90;;;;;;5115037;28;20218;-69
2021/03/22 11:16:43;;;;;;;5.13;3.58;;;7.80;99.90;;;;;;5114196;28;20271;-70
2021/03/22 11:19:42;;;;;;;6.80;3.70;;;7.80;99.90;;;;;;5114882;28;20230;-69
2021/03/22 11:22:38;;;;;;;9.05;3.65;;;7.90;99.90;;;;;;5110537;28;20206;-69
2021/03/22 11:25:32;;;;;;;7.65;4.10;;;8.00;99.90;;;;;;5106050;28;20202;-70
2021/03/22 11:28:06;;;;;;;9.93;3.22;;;8.00;99.90;;;;;;5108711;28;20203;-70
2021/03/22 11:30:57;;;;;;;4.07;3.08;;;8.10;99.90;;;;;;5116471;28;20243;-69
2021/03/22 11:33:43;;;;;;;5.97;2.70;;;8.30;99.90;;;;;;5118144;28;20174;-69
2021/03/22 11:36:18;;;;;;;14.73;3.03;;;8.40;99.90;;;;;;5114696;28;20206;-70
2021/03/22 11:38:56;;;;;;;5.38;3.55;;;8.60;99.90;;;;;;5114646;28;20259;-69
2021/03/22 11:41:35;;;;;;;5.28;2.95;;;8.70;99.90;;;;;;5115309;28;20206;-69
2021/03/22 11:44:15;;;;;;;7.78;3.60;;;8.70;99.90;;;;;;5114302;28;20167;-68
2021/03/22 11:46:56;;;;;;;6.43;3.40;;;8.70;99.90;;;;;;5114837;28;20186;-70
2021/03/22 11:49:42;;;;;;;6.18;3.60;;;8.60;99.90;;;;;;5114400;28;20179;-69
2021/03/22 11:52:27;;;;;;;7.93;4.00;;;8.60;99.90;;;;;;5114620;28;20534;-70
2021/03/22 11:55:03;;;;;;;7.95;4.03;;;8.60;99.90;;;;;;5113572;28;20210;-70
2021/03/22 11:57:38;;;;;;;9.77;4.40;;;8.50;99.90;;;;;;5114200;28;20225;-70
2021/03/22 12:00:26;;;;;;;7.20;3.05;;;8.60;99.90;;;;;;5114363;28;20175;-70
2021/03/22 12:03:00;;;;;;;7.72;3.85;;;8.50;99.90;;;;;;5117407;28;20556;-70
2021/03/22 12:05:32;;;;;;;9.52;3.08;;;8.60;99.90;;;;;;5118497;28;20618;-70
2021/03/22 12:08:00;;;;;;;15.18;6.88;;;8.60;99.90;;;;;;5118677;28;20596;-69
2021/03/22 12:10:32;;;;;;;5.20;3.20;;;8.70;99.90;;;;;;5118501;28;20203;-70
2021/03/22 12:13:01;;;;;;;5.65;3.05;;;8.60;99.90;;;;;;5118633;28;20229;-70
2021/03/22 12:15:29;;;;;;;6.35;3.65;;;8.50;99.90;;;;;;5118449;28;20205;-70
2021/03/22 12:18:21;;;;;;;5.25;3.45;;;8.70;99.90;;;;;;5119096;28;20210;-69
2021/03/22 12:20:47;;;;;;;6.38;3.92;;;8.70;99.90;;;;;;5118754;28;20627;-69
2021/03/22 12:23:16;;;;;;;3.97;3.45;;;8.80;99.90;;;;;;5117342;28;20190;-69
2021/03/22 12:25:47;;;;;;;6.75;4.38;;;8.70;99.90;;;;;;5118251;28;20635;-69
2021/03/22 12:28:16;;;;;;;9.57;6.82;;;8.80;99.90;;;;;;5118460;28;20195;-69
2021/03/22 12:30:43;;;;;;;4.20;2.30;;;8.80;99.90;;;;;;5119626;27;20317;-70
2021/03/22 12:33:27;;;;;;;4.88;3.47;;;8.70;99.90;;;;;;5118987;28;20205;-70
2021/03/22 12:35:54;;;;;;;3.72;3.25;;;8.60;99.90;;;;;;5117894;28;20202;-70
2021/03/22 12:38:21;;;;;;;5.13;3.90;;;8.50;99.90;;;;;;5118904;28;20215;-69
2021/03/22 12:40:54;;;;;;;7.95;2.63;;;8.60;99.90;;;;;;5117938;27;20637;-69
2021/03/22 12:43:30;;;;;;;4.95;3.03;;;8.70;99.90;;;;;;5118382;28;20202;-70
2021/03/22 12:45:57;;;;;;;8.32;4.05;;;8.70;99.90;;;;;;5117725;27;20170;-69
2021/03/22 12:48:26;;;;;;;9.88;5.90;;;8.80;99.90;;;;;;5117774;28;20202;-70
2021/03/22 12:50:53;;;;;;;14.90;10.43;;;8.80;99.90;;;;;;5117798;28;20244;-69
2021/03/22 12:53:20;;;;;;;5.20;4.63;;;9.00;99.90;;;;;;5117630;28;20190;-70
2021/03/22 12:55:51;;;;;;;5.15;3.47;;;8.90;99.90;;;;;;5118674;28;20185;-70
2021/03/22 12:58:20;;;;;;;8.63;4.00;;;8.90;99.90;;;;;;5118916;28;20378;-70
2021/03/22 13:00:51;;;;;;;6.95;3.40;;;8.90;99.90;;;;;;5117282;28;20209;-68
2021/03/22 13:03:26;;;;;;;3.42;3.13;;;9.00;99.90;;;;;;5117607;28;20183;-68
2021/03/22 13:05:54;;;;;;;7.68;3.72;;;9.20;99.90;;;;;;5116973;27;20202;-68
2021/03/22 13:08:22;;;;;;;7.30;3.40;;;9.30;99.90;;;;;;5117179;28;20198;-69
2021/03/22 13:10:53;;;;;;;5.80;3.90;;;9.10;99.90;;;;;;5117366;28;20195;-68
2021/03/22 13:13:24;;;;;;;3.72;3.35;;;9.20;99.90;;;;;;5116997;28;20213;-70
2021/03/22 13:15:54;;;;;;;4.95;3.72;;;9.20;99.90;;;;;;5117530;28;20234;-69
2021/03/22 13:18:32;;;;;;;7.55;3.72;;;9.30;99.90;;;;;;5116930;28;20198;-69
2021/03/22 13:21:13;;;;;;;3.88;3.20;;;9.20;99.90;;;;;;5117545;28;20202;-70
2021/03/22 13:23:40;;;;;;;6.80;4.78;;;8.70;99.90;;;;;;5117053;28;20202;-68
2021/03/22 13:26:07;;;;;;;7.57;3.80;;;8.90;99.90;;;;;;5117329;27;20670;-68
2021/03/22 13:28:39;;;;;;;14.02;3.75;;;9.00;99.90;;;;;;5117213;28;20209;-68
2021/03/22 13:31:09;;;;;;;7.35;3.78;;;8.90;99.90;;;;;;5116954;28;20225;-68